Pagina principale
Immagini satellite Previsioni 15 giorniClimaMeteomar Cicloni Fulmine AeroportiFAQ Bollettino Informazioni
Tempo : Europa Africa America settentrionale America meridionale Asia Australia-Oceania Altri
Lingue Contatto

Genova, Italia

Sestri

latitudine: 44-25N, longitudine: 008-51E, altezza: 2 m


METAR: LIMJ 202050Z 02004KT 9999 FEW030 BKN060 15/08 Q1006
short-TAF: scaduto (47819 ore)
long-TAF: LIMJ 201700Z 2018/2118 16007KT 9999 SCT025 BKN060 TEMPO 2018/2118 RA

Ora: 23:01 (21:01 UTC)

Osservazione

Il bollettino è stato emesso 11 minuti fa, alle 20:50 UTC  
Vento 04 kt da nord/nord-est
Temperature 15°C
Umidità 63%
Pressione 1006 hPa
Visibilità 10 km o più
Poco nuvoloso ad un'altezza di 3000 ft
Nuvoloso ad un'altezza di 6000 ft

Cambiare le unità

Previsione

Il bollettino è stato emesso 3 ore e 40 minuti fa, alle 17:21 UTC  
Previsione valida dal 20 alle 18 UTC al 21 alle 18 UTC
Vento 07 kt da sud/sud-est
Visibilità 10 km o più
Nubi sparse ad un'altezza di 2500 ft
Nuvoloso ad un'altezza di 6000 ft
Temporaneamente
dal 20 alle 18 UTC al 21 alle 18 UTC
pioggia
Le informazioni contenute in questo sito formano oggetto di una clausola di esclusione di responsabilità
Tempo : Europa Africa America settentrionale America meridionale Asia Australia-Oceania Altri
Immagini satellite Previsioni 15 giorniClimaMeteomar Cicloni Fulmine AeroportiFAQ Lingue Contatto Bollettino Informazioni